Address 0xe5894565d105c4b0b28332131b76c641da2e626f 28

 
Txn Hash Method
Block
From
To
Value [Txn Fee]
0x27f182d71f05c3b69f87f8576d6058c3a4bab9e1b1188778bf8a4dcfdd2bdc6dExecute1979244422024-04-05 18:17:4112 days 16 mins ago0xe5894565d105c4b0b28332131b76c641da2e626fOUT Uniswap: Universal Router 40 ETH0.00000467 0.01
0xb12215a89ce6ef10eefe39aee027e5d345d0de2f5ab073d622ae051c09d84040Approve1979243302024-04-05 18:17:1212 days 17 mins ago0xe5894565d105c4b0b28332131b76c641da2e626fOUT Angle Protocol: agEUR Token0 ETH0.00000119 0.01
0xaf26194902d60c0810c419f91f7af8a20f05f2c9ab82af8d0d47a85289d50eccDeposit1972503442024-04-03 19:14:5813 days 23 hrs ago0xe5894565d105c4b0b28332131b76c641da2e626fOUT 0xc6ade8a68026d582ab37b879d188caf7e405dd090 ETH0.00000275 0.01
0x7906c4d0e386e2ba64d78132668f3db52c903f45b6b5bf6158d12ecd3143e48cApprove1972501742024-04-03 19:14:1513 days 23 hrs ago0xe5894565d105c4b0b28332131b76c641da2e626fOUT Renzo Protocol : ezETH Token0 ETH0.00000176 0.01
0xed71bdc37f0ec252d155b43a02cdbe571f8e28d9ade991ff88c559999f30f255Deposit ETH1972499532024-04-03 19:13:2013 days 23 hrs ago0xe5894565d105c4b0b28332131b76c641da2e626fOUT Renzo Protocol: Deposit0.069 ETH0.00000422 0.01
0xc13ca5fe13428339ae566845bd182c6a5f9288106484c1bb902a7fc923eb642aTransfer1972496912024-04-03 19:12:1413 days 23 hrs ago0x0938c63109801ee4243a487ab84dffa2bba4589e IN 0xe5894565d105c4b0b28332131b76c641da2e626f0.06777627 ETH0.00000114 0.01
0xbfd18d8bb3a3f9384926a5763b996ffed70219079f2cd1bf6601167136335af4Execute Controll...1961858622024-03-31 16:51:3917 days 1 hr ago0xe5894565d105c4b0b28332131b76c641da2e626fOUT Socket: Gateway0.0005 ETH0.00001155 0.01
0xa969a8616b096ba6edda389550a80628fe795bef27394bcfa1de83d9bce3a5e1Transfer1953771782024-03-29 8:30:1319 days 10 hrs ago0xe5894565d105c4b0b28332131b76c641da2e626fOUT0x99eda2b11c7150a6f5b9bb412d34117187548d7a0.04 ETH0.00000133 0.01
0xe9123fad185b2c17ae4d53e2f71ba165b95c28ac128f9c9042373c7395f21335Lz Send1953726412024-03-29 8:11:2019 days 10 hrs ago0xe5894565d105c4b0b28332131b76c641da2e626fOUT 0x00000000000e1a99dddd5610111884278bdbda1d0.020823083187849 ETH0.0000052 0.012004
0xae4b6167ab57ad4fffaa6cb3ca4549cf9987d58d2d8b9a54413ef4336332fee8Transfer1927086452024-03-21 14:35:4527 days 3 hrs ago0xe5894565d105c4b0b28332131b76c641da2e626fOUT0x99eda2b11c7150a6f5b9bb412d34117187548d7a1.47429841 ETH0.00000097 0.01
0xc0f8fe67b6f9cb8a0d124a5b6487427a3c1608546decec8641a7edf6e7ca2bccExecute1927084702024-03-21 14:35:0027 days 3 hrs ago0xe5894565d105c4b0b28332131b76c641da2e626fOUT Uniswap: Universal Router 40 ETH0.00000766 0.01
0x5eb6c6a5b7328c96c8e8bc916b9cbac12060e1c89918024933c880ca6a17b6f9Approve1927083602024-03-21 14:34:3227 days 4 hrs ago0xe5894565d105c4b0b28332131b76c641da2e626fOUT Arbitrum: USDC Token0 ETH0.00000158 0.01
0x6bc3478cf88f36d8197ed22c669a3d6ea48b92b33252ec597e276fdd05ee7b0bTransfer1877330682024-03-06 16:57:3542 days 1 hr ago0x0938c63109801ee4243a487ab84dffa2bba4589e IN 0xe5894565d105c4b0b28332131b76c641da2e626f0.01444344 ETH0.000098 0.1
0xf8c3bc4b57a717ef9422dffcd532db5bc4cec6f490e37c7e645aa929528dabacSend From1870326872024-03-04 14:24:3244 days 4 hrs ago0xe5894565d105c4b0b28332131b76c641da2e626fOUT OmniCat: OMNI Token0.000116505297105 ETH0.0002121 0.1
0x7f5ba1d0c77fe902b8d7443f464306b4d52b5b268dfcee793ea834699abf266cProcess Route1870270932024-03-04 14:00:4244 days 4 hrs ago0xe5894565d105c4b0b28332131b76c641da2e626fOUT 0x544ba588efd839d2692fc31ea991cd39993c135f0 ETH0.0003987 0.1
0xc18ad8531baa608efbb819cc99fbc420b2dfb0d75b6190ce245dc1d800d77fffApprove1870269622024-03-04 14:00:0944 days 4 hrs ago0xe5894565d105c4b0b28332131b76c641da2e626fOUT Stargate Finance: STG Token0 ETH0.00014362 0.1
0x43f73bceae82994a538fc625b43464eac5dfdb417b229e452a098fd1bc3d066eApprove1869953342024-03-04 11:45:3044 days 6 hrs ago0xe5894565d105c4b0b28332131b76c641da2e626fOUT Stargate Finance: STG Token0 ETH0.0001185 0.1
0x114e1a1ecc4d92a67901da1649f087bf84562b82e94c68d34aa01554d8e4d344-1869374602024-03-04 7:38:0044 days 10 hrs ago0xe5894565d105c4b0b28332131b76c641da2e626fOUT0xf70da97812cb96acdf810712aa562db8dfa3dbef0.010175944773507 ETH0.00007319 0.1
0xc6b6ea614eaf94753bb821719f549c3f2cfe420905bdb437aaa5241b67d43745Execute1869369182024-03-04 7:35:4144 days 10 hrs ago0xe5894565d105c4b0b28332131b76c641da2e626fOUT Uniswap: Universal Router 40 ETH0.00034629 0.1
0x97dcbfdd92963ca48255eb475510d5fedb0b82401fa5c5d78adfc68f5bcd3fc9Single Direct Si...1829404352024-02-21 8:11:4756 days 10 hrs ago0xe5894565d105c4b0b28332131b76c641da2e626fOUT 0xa195608c2306a26f727d5199d5a382a4508308da0 ETH0.00037078 0.1
0x6eac087caf15eefa99793c30ad130a98cd8c80068002dca307df7acd6cdbe51dApprove1829403592024-02-21 8:11:2756 days 10 hrs ago0xe5894565d105c4b0b28332131b76c641da2e626fOUT Arbitrum: USDC Token0 ETH0.0000789 0.1
0x2f238c92163b17de8d7a29e9646ebded973a1c49765053da299b6a05083b2fd3Claim1829124112024-02-21 6:13:2556 days 12 hrs ago0xe5894565d105c4b0b28332131b76c641da2e626fOUT Galxe: NFT Space Station0 ETH0.00015611 0.1
0x3feefef61e637c66920ff11b00fded84928b6ccaeed848e7576ad69c7f06990eClaim Tokens1823107272024-02-19 10:58:3058 days 7 hrs ago0xe5894565d105c4b0b28332131b76c641da2e626fOUT 0xaf667811a7edcd5b0066cd4ca0da51637db76d090 ETH0.00015674 0.1
0x7c95c02af465f68ab1c6f42e95de3970ab497c3585a2d2d7c8061ad94cc53c15Redeem Fees1823106812024-02-19 10:58:1858 days 7 hrs ago0xe5894565d105c4b0b28332131b76c641da2e626fOUT 0x93e11be33b25d562635558348da0dd5f74d8377b0 ETH0.00030957 0.1
0xf9a730642899cf7282f425e929943ba11cd24e8e5efc5267932f6fe7a6459640Withdraw1823105382024-02-19 10:57:4158 days 7 hrs ago0xe5894565d105c4b0b28332131b76c641da2e626fOUT 0xfbd849e6007f9bc3cc2d6eb159c045b8dc6602680 ETH0.00005798 0.1
[ Download CSV Export 
Latest 25 internal transaction
Parent Txn Hash Block From To Value
0x27f182d71f05c3b69f87f8576d6058c3a4bab9e1b1188778bf8a4dcfdd2bdc6d1979244422024-04-05 18:17:4112 days 16 mins ago Uniswap: Universal Router 40xe5894565d105c4b0b28332131b76c641da2e626f0.000026436725206895 ETH
0x6ec8aa90fff77dc6e19db5916b7720e742f80154b58aeadcce67380bffd998161953529032024-03-29 6:49:0519 days 11 hrs ago 0x25ab3efd52e6470681ce037cd546dc60726948d30xe5894565d105c4b0b28332131b76c641da2e626f0.060953 ETH
0xc0f8fe67b6f9cb8a0d124a5b6487427a3c1608546decec8641a7edf6e7ca2bcc1927084702024-03-21 14:35:0027 days 3 hrs ago Uniswap: Universal Router 40xe5894565d105c4b0b28332131b76c641da2e626f1.461216094560579188 ETH
0xc6b6ea614eaf94753bb821719f549c3f2cfe420905bdb437aaa5241b67d437451869369182024-03-04 7:35:4144 days 10 hrs ago Uniswap: Universal Router 40xe5894565d105c4b0b28332131b76c641da2e626f0.010074582283977849 ETH
0x0e79af177db0f04e5aa9d96249b412eba456b4d6a9587b813a3597259ebdc84f1789759862024-02-09 11:01:0268 days 7 hrs ago 0x0bd0e39db7f3557ae9c071209b7b26808157a0aa0xe5894565d105c4b0b28332131b76c641da2e626f0.001 ETH
0xb74ec7d1848dfb5a09625013a22c9feb6746771e15173567b681c8a6bd9086b61789356992024-02-09 8:05:3868 days 10 hrs ago Layer Zero: Ultra Light Node v20xe5894565d105c4b0b28332131b76c641da2e626f0.000050947424516346 ETH
0xbf70b52c5ffd4e180ab001c6d957d9ab9d779c341b3d3b39336d5c17cddae7271786687322024-02-08 12:02:5669 days 6 hrs ago 0x0bd0e39db7f3557ae9c071209b7b26808157a0aa0xe5894565d105c4b0b28332131b76c641da2e626f0.001 ETH
0x8347605ecebdbc3f2721043141d97184583b244111168d8038bbc88325eb49b61786414572024-02-08 10:04:0669 days 8 hrs ago 0x0bd0e39db7f3557ae9c071209b7b26808157a0aa0xe5894565d105c4b0b28332131b76c641da2e626f0.001 ETH
0xd8f5b2c53f2bbcfb66278a6c96b693b44726e31b30934160e97954baf123a1801786374142024-02-08 9:46:3569 days 8 hrs ago 0x0bd0e39db7f3557ae9c071209b7b26808157a0aa0xe5894565d105c4b0b28332131b76c641da2e626f0.001 ETH
0xcfc9b79bac2bfc2f31eed0d6a292dd672f7e4d08f7f1b033b13d135a177169681680319602024-01-07 14:20:05101 days 4 hrs ago Uniswap: Universal Router V1 20xe5894565d105c4b0b28332131b76c641da2e626f0.226363842710417377 ETH
0x863c645cc5604e85e7f00b409f9361b6d74874706b9a5281b65d2047fd33e2471632540852023-12-24 11:46:17115 days 6 hrs ago Uniswap: Universal Router V1 20xe5894565d105c4b0b28332131b76c641da2e626f0.098947562276737419 ETH
0xa2a24a151e069d5b753921f35dcfa9d7c7fee5fe40c9081ed78292472f7060421632529912023-12-24 11:41:39115 days 6 hrs ago Layer Zero: Relayer v20xe5894565d105c4b0b28332131b76c641da2e626f0.01 ETH
0x1a72d1039572bcc7c16401845a1377428365b05911422a5dc93b1907bc4486b61519444232023-11-19 11:01:20150 days 7 hrs ago Socket: Refuel0xe5894565d105c4b0b28332131b76c641da2e626f0.00345337622724 ETH
0x6bec98e0f4c1fce9ac4b10dc5d29bdf0b962b61767e92a9439831cfc0a882afa1519407712023-11-19 10:45:49150 days 7 hrs ago Uniswap: Universal Router V1 20xe5894565d105c4b0b28332131b76c641da2e626f0.012242587493647403 ETH
0x1e20cbb09d8952b628041026ff763b794aeef4c4b500a2a191fde1039ff3a6251490233942023-11-10 12:04:46159 days 6 hrs ago Layer Zero: Ultra Light Node v20xe5894565d105c4b0b28332131b76c641da2e626f0.00031815664811328 ETH
0x2ea3070d1ea831f5b696f3a87b55cf4563d8ea2b16deb9d83b00448ec51b1dee1490227652023-11-10 12:02:07159 days 6 hrs ago Uniswap: Universal Router V1 20xe5894565d105c4b0b28332131b76c641da2e626f0.012386942299236819 ETH
0x6dd81c35b1cb3219b759c7684dc313016d1de03831ab026c41afee66891696df816997632023-04-18 9:27:47365 days 9 hrs ago Stargate Finance: SGETH Token0xe5894565d105c4b0b28332131b76c641da2e626f2.142809604347367348 ETH
0x669a9d5d41e00093603e6daf48a5e28eeff635a1e32fd1d0b273c8c53ed0b967810169062023-04-16 10:10:09367 days 8 hrs ago Stargate Finance: SGETH Token0xe5894565d105c4b0b28332131b76c641da2e626f2.188686 ETH
0xcf2b66caeda07b803db3b32e29076e478ec6e3c450eedc30424d4fb78d88b25a810133482023-04-16 9:55:21367 days 8 hrs ago Stargate Finance: SGETH Token0xe5894565d105c4b0b28332131b76c641da2e626f2.19868 ETH
0x4b9c1d4dd1e4b3e6e76fa7974c3b8bf9a4cdbb10b4766ff1a76989931cd11a4a809917472023-04-16 8:25:33367 days 10 hrs ago Layer Zero: Ultra Light Node v20xe5894565d105c4b0b28332131b76c641da2e626f0.000000140256324096 ETH
0x775a7197214fc066dee4035ce138a7beeea821c158fb20bd0f0b4d673a498215803740602023-04-14 13:15:09369 days 5 hrs ago Layer Zero: Ultra Light Node v20xe5894565d105c4b0b28332131b76c641da2e626f0.000013305646972074 ETH
0xbe25314e53173600c686c8d35157ecc25568da20812bab156efcf06afa8b65f0802972752023-04-14 7:56:59369 days 10 hrs ago Uniswap: Universal Router0xe5894565d105c4b0b28332131b76c641da2e626f0.000416938627503215 ETH
0xac1185da2a0f73bf1c2fa1b6a99afe30649aed089f74810883effcb7a88f07b1802866242023-04-14 7:12:44369 days 11 hrs ago Uniswap: Universal Router0xe5894565d105c4b0b28332131b76c641da2e626f0.000420666522614466 ETH
0x94e7fe8bbee00c4a50cd7ad97773cd3d22507ce378284009c1262e5b94f57217802863332023-04-14 7:11:34369 days 11 hrs ago 0x9aed3a8896a85fe9a8cac52c9b402d092b629a300xe5894565d105c4b0b28332131b76c641da2e626f0.132309163284491524 ETH
0x886b61871a3949d99d5c3041e835edec99b2fd36fc51d6a4caadbdfe3991420f793403342023-04-11 12:29:28372 days 6 hrs ago Rhino.fi: Bridge0xe5894565d105c4b0b28332131b76c641da2e626f0.0005 ETH
[ Download CSV Export 
Latest 1 Deposit
[ Download CSV Export 
Loading

Contract Name:
0 ETH

Compiler Version
0

Optimization Enabled:
0 ETH

Other Settings:
-NA-
Block Transaction Gas Used Reward
Age Block Fee Address BC Fee Address Voting Power Jailed Incoming
Block Uncle Number Difficulty Gas Used Reward
Loading
Make sure to use the "Vote Down" button for any spammy posts, and the "Vote Up" for interesting conversations.